Route Details

Aircraft Information
Group: European Fleet
Types: A30F, A31F, B738
Route Data
Distance: 396nm
Duration: 1h 10m
Origin METAR: EGFF 010450Z AUTO 28017KT 9999 OVC045 08/04 Q1026
Dest. METAR: EDDK 010450Z AUTO 27012KT CAVOK 06/02 Q1020 NOSIG
Freight Data
(for Feb 1, 2023)
Load Factor:
67%
Manifested Cargo: 68,611lbs
Financial History
Total Freight: 153,630lbs
Average Load: 0lbs/flt
Fuel Used: 32,399lbs
Avg. Fuel Used: 0lbs/flt
Fuel Expense: $20,101
Avg. Fuel Expense: $0
Avg. Fuel Cost: $0/lbs
Total Gross Income: $353,349
Pilot Pay: $777
Total Expenses: $75,636
Total Revenue: $256,209
Average Revenue: $0

Capitol Logistics 565




EGFF
Cardiff International Airport
Cardiff, GB
EDDK
Cologne Bonn Airport
Cologne, DE